sensor_id;sensor_type;location;lat;lon;timestamp;temperature;humidity
34492;DHT22;20737;49.908;8.126;2022-08-01T00:01:24;22.40;99.90
34492;DHT22;20737;49.908;8.126;2022-08-01T00:03:51;22.30;99.90
34492;DHT22;20737;49.908;8.126;2022-08-01T00:06:19;22.30;99.90
34492;DHT22;20737;49.908;8.126;2022-08-01T00:08:46;22.30;99.90
34492;DHT22;20737;49.908;8.126;2022-08-01T00:11:13;22.20;99.90
34492;DHT22;20737;49.908;8.126;2022-08-01T00:13:40;22.20;99.90
34492;DHT22;20737;49.908;8.126;2022-08-01T00:16:06;22.20;99.90
34492;DHT22;20737;49.908;8.126;2022-08-01T00:18:33;22.10;99.90
34492;DHT22;20737;49.908;8.126;2022-08-01T00:21:01;22.00;99.90
34492;DHT22;20737;49.908;8.126;2022-08-01T00:23:29;22.00;99.90
34492;DHT22;20737;49.908;8.126;2022-08-01T00:25:56;21.90;99.90
34492;DHT22;20737;49.908;8.126;2022-08-01T00:28:23;21.80;99.90
34492;DHT22;20737;49.908;8.126;2022-08-01T00:30:49;21.80;99.90
34492;DHT22;20737;49.908;8.126;2022-08-01T00:33:16;21.70;99.90
34492;DHT22;20737;49.908;8.126;2022-08-01T00:35:43;21.70;99.90
34492;DHT22;20737;49.908;8.126;2022-08-01T00:38:10;21.70;99.90
34492;DHT22;20737;49.908;8.126;2022-08-01T00:40:38;21.70;99.90
34492;DHT22;20737;49.908;8.126;2022-08-01T00:43:05;21.60;99.90
34492;DHT22;20737;49.908;8.126;2022-08-01T00:45:32;21.70;99.90
34492;DHT22;20737;49.908;8.126;2022-08-01T00:47:59;21.70;99.90
34492;DHT22;20737;49.908;8.126;2022-08-01T00:50:26;21.70;99.90
34492;DHT22;20737;49.908;8.126;2022-08-01T00:52:54;21.70;99.90
34492;DHT22;20737;49.908;8.126;2022-08-01T00:55:21;21.60;99.90
34492;DHT22;20737;49.908;8.126;2022-08-01T00:57:50;21.60;99.90
34492;DHT22;20737;49.908;8.126;2022-08-01T01:00:17;21.60;99.90
34492;DHT22;20737;49.908;8.126;2022-08-01T01:02:44;21.60;99.90
34492;DHT22;20737;49.908;8.126;2022-08-01T01:05:11;21.50;99.90
34492;DHT22;20737;49.908;8.126;2022-08-01T01:07:46;21.40;99.90
34492;DHT22;20737;49.908;8.126;2022-08-01T01:10:17;21.40;99.90
34492;DHT22;20737;49.908;8.126;2022-08-01T01:12:50;21.40;99.90
34492;DHT22;20737;49.908;8.126;2022-08-01T01:15:22;21.30;99.90
34492;DHT22;20737;49.908;8.126;2022-08-01T01:17:55;21.20;99.90
34492;DHT22;20737;49.908;8.126;2022-08-01T01:20:27;21.20;99.90
34492;DHT22;20737;49.908;8.126;2022-08-01T01:26:01;21.00;99.90
34492;DHT22;20737;49.908;8.126;2022-08-01T01:28:35;20.90;99.90
34492;DHT22;20737;49.908;8.126;2022-08-01T01:31:10;20.90;99.90
34492;DHT22;20737;49.908;8.126;2022-08-01T01:33:40;20.80;99.90
34492;DHT22;20737;49.908;8.126;2022-08-01T01:36:09;20.70;99.90
34492;DHT22;20737;49.908;8.126;2022-08-01T01:38:40;20.60;99.90
34492;DHT22;20737;49.908;8.126;2022-08-01T01:41:09;20.60;99.90
34492;DHT22;20737;49.908;8.126;2022-08-01T01:43:39;20.60;99.90
34492;DHT22;20737;49.908;8.126;2022-08-01T01:46:09;20.60;99.90
34492;DHT22;20737;49.908;8.126;2022-08-01T01:48:38;20.60;99.90
34492;DHT22;20737;49.908;8.126;2022-08-01T01:51:07;20.50;99.90
34492;DHT22;20737;49.908;8.126;2022-08-01T01:53:35;20.50;99.90
34492;DHT22;20737;49.908;8.126;2022-08-01T01:56:02;20.40;99.90
34492;DHT22;20737;49.908;8.126;2022-08-01T01:58:32;20.40;99.90
34492;DHT22;20737;49.908;8.126;2022-08-01T02:01:01;20.40;99.90
34492;DHT22;20737;49.908;8.126;2022-08-01T02:03:30;20.30;99.90
34492;DHT22;20737;49.908;8.126;2022-08-01T02:05:59;20.30;99.90
34492;DHT22;20737;49.908;8.126;2022-08-01T02:08:28;20.30;99.90
34492;DHT22;20737;49.908;8.126;2022-08-01T02:10:55;20.30;99.90
34492;DHT22;20737;49.908;8.126;2022-08-01T02:13:42;20.30;99.90
34492;DHT22;20737;49.908;8.126;2022-08-01T02:16:09;20.30;99.90
34492;DHT22;20737;49.908;8.126;2022-08-01T02:18:39;20.30;99.90
34492;DHT22;20737;49.908;8.126;2022-08-01T02:21:09;20.30;99.90
34492;DHT22;20737;49.908;8.126;2022-08-01T02:23:39;20.20;99.90
34492;DHT22;20737;49.908;8.126;2022-08-01T02:26:08;20.20;99.90
34492;DHT22;20737;49.908;8.126;2022-08-01T02:28:38;20.20;99.90
34492;DHT22;20737;49.908;8.126;2022-08-01T02:31:10;20.20;99.90
34492;DHT22;20737;49.908;8.126;2022-08-01T02:33:44;20.10;99.90
34492;DHT22;20737;49.908;8.126;2022-08-01T02:36:13;20.10;99.90
34492;DHT22;20737;49.908;8.126;2022-08-01T02:38:44;20.10;99.90
34492;DHT22;20737;49.908;8.126;2022-08-01T02:41:17;20.10;99.90
34492;DHT22;20737;49.908;8.126;2022-08-01T02:43:48;20.10;99.90
34492;DHT22;20737;49.908;8.126;2022-08-01T02:46:18;20.10;99.90
34492;DHT22;20737;49.908;8.126;2022-08-01T02:48:48;20.20;99.90
34492;DHT22;20737;49.908;8.126;2022-08-01T02:51:19;20.10;99.90
34492;DHT22;20737;49.908;8.126;2022-08-01T02:53:48;20.10;99.90
34492;DHT22;20737;49.908;8.126;2022-08-01T02:56:17;20.10;99.90
34492;DHT22;20737;49.908;8.126;2022-08-01T02:58:46;20.10;99.90
34492;DHT22;20737;49.908;8.126;2022-08-01T03:01:14;20.10;99.90
34492;DHT22;20737;49.908;8.126;2022-08-01T03:03:41;20.00;99.90
34492;DHT22;20737;49.908;8.126;2022-08-01T03:06:10;19.90;99.90
34492;DHT22;20737;49.908;8.126;2022-08-01T03:08:38;19.80;99.90
34492;DHT22;20737;49.908;8.126;2022-08-01T03:11:06;19.80;99.90
34492;DHT22;20737;49.908;8.126;2022-08-01T03:13:33;19.80;99.90
34492;DHT22;20737;49.908;8.126;2022-08-01T03:16:01;19.70;99.90
34492;DHT22;20737;49.908;8.126;2022-08-01T03:18:29;19.70;99.90
34492;DHT22;20737;49.908;8.126;2022-08-01T03:20:57;19.70;99.90
34492;DHT22;20737;49.908;8.126;2022-08-01T03:23:28;19.60;99.90
34492;DHT22;20737;49.908;8.126;2022-08-01T03:25:56;19.70;99.90
34492;DHT22;20737;49.908;8.126;2022-08-01T03:28:24;19.60;99.90
34492;DHT22;20737;49.908;8.126;2022-08-01T03:30:52;19.60;99.90
34492;DHT22;20737;49.908;8.126;2022-08-01T03:33:19;19.60;99.90
34492;DHT22;20737;49.908;8.126;2022-08-01T03:35:49;19.60;99.90
34492;DHT22;20737;49.908;8.126;2022-08-01T03:38:21;19.60;99.90
34492;DHT22;20737;49.908;8.126;2022-08-01T03:40:53;19.60;99.90
34492;DHT22;20737;49.908;8.126;2022-08-01T03:43:26;19.40;99.90
34492;DHT22;20737;49.908;8.126;2022-08-01T03:45:58;19.40;99.90
34492;DHT22;20737;49.908;8.126;2022-08-01T03:48:29;19.40;99.90
34492;DHT22;20737;49.908;8.126;2022-08-01T03:50:59;19.40;99.90
34492;DHT22;20737;49.908;8.126;2022-08-01T03:53:30;19.40;99.90
34492;DHT22;20737;49.908;8.126;2022-08-01T03:56:00;19.20;99.90
34492;DHT22;20737;49.908;8.126;2022-08-01T03:58:29;19.20;99.90
34492;DHT22;20737;49.908;8.126;2022-08-01T04:00:56;19.10;99.90
34492;DHT22;20737;49.908;8.126;2022-08-01T04:03:24;19.10;99.90
34492;DHT22;20737;49.908;8.126;2022-08-01T04:05:50;19.10;99.90
34492;DHT22;20737;49.908;8.126;2022-08-01T04:08:17;19.00;99.90
34492;DHT22;20737;49.908;8.126;2022-08-01T04:10:44;19.10;99.90
34492;DHT22;20737;49.908;8.126;2022-08-01T04:13:12;19.10;99.90
34492;DHT22;20737;49.908;8.126;2022-08-01T04:15:39;19.10;99.90
34492;DHT22;20737;49.908;8.126;2022-08-01T04:18:06;19.10;99.90
34492;DHT22;20737;49.908;8.126;2022-08-01T04:20:33;19.00;99.90
34492;DHT22;20737;49.908;8.126;2022-08-01T04:22:59;19.00;99.90
34492;DHT22;20737;49.908;8.126;2022-08-01T04:25:29;19.00;99.90
34492;DHT22;20737;49.908;8.126;2022-08-01T04:27:59;19.00;99.90
34492;DHT22;20737;49.908;8.126;2022-08-01T04:30:33;19.00;99.90
34492;DHT22;20737;49.908;8.126;2022-08-01T04:33:02;19.00;99.90
34492;DHT22;20737;49.908;8.126;2022-08-01T04:35:32;19.10;99.90
34492;DHT22;20737;49.908;8.126;2022-08-01T04:38:02;19.10;99.90
34492;DHT22;20737;49.908;8.126;2022-08-01T04:40:29;19.10;99.90
34492;DHT22;20737;49.908;8.126;2022-08-01T04:42:57;19.30;99.90
34492;DHT22;20737;49.908;8.126;2022-08-01T04:45:24;19.30;99.90
34492;DHT22;20737;49.908;8.126;2022-08-01T04:47:53;19.40;99.90
34492;DHT22;20737;49.908;8.126;2022-08-01T04:50:20;19.40;99.90
34492;DHT22;20737;49.908;8.126;2022-08-01T04:52:48;19.40;99.90
34492;DHT22;20737;49.908;8.126;2022-08-01T04:55:16;19.50;99.90
34492;DHT22;20737;49.908;8.126;2022-08-01T04:57:45;19.50;99.90
34492;DHT22;20737;49.908;8.126;2022-08-01T05:00:14;19.60;99.90
34492;DHT22;20737;49.908;8.126;2022-08-01T05:02:42;19.70;99.90
34492;DHT22;20737;49.908;8.126;2022-08-01T05:05:10;19.70;99.90
34492;DHT22;20737;49.908;8.126;2022-08-01T05:07:37;19.70;99.90
34492;DHT22;20737;49.908;8.126;2022-08-01T05:10:05;19.70;99.90
34492;DHT22;20737;49.908;8.126;2022-08-01T05:12:32;19.70;99.90
34492;DHT22;20737;49.908;8.126;2022-08-01T05:14:59;19.70;99.90
34492;DHT22;20737;49.908;8.126;2022-08-01T05:17:27;19.80;99.90
34492;DHT22;20737;49.908;8.126;2022-08-01T05:19:54;19.80;99.90
34492;DHT22;20737;49.908;8.126;2022-08-01T05:22:22;19.90;99.90
34492;DHT22;20737;49.908;8.126;2022-08-01T05:24:51;19.90;99.90
34492;DHT22;20737;49.908;8.126;2022-08-01T05:27:18;20.00;99.90
34492;DHT22;20737;49.908;8.126;2022-08-01T05:29:45;20.00;99.90
34492;DHT22;20737;49.908;8.126;2022-08-01T05:32:12;20.00;99.90
34492;DHT22;20737;49.908;8.126;2022-08-01T05:34:40;20.20;99.90
34492;DHT22;20737;49.908;8.126;2022-08-01T05:37:07;20.40;99.90
34492;DHT22;20737;49.908;8.126;2022-08-01T05:39:35;20.50;99.90
34492;DHT22;20737;49.908;8.126;2022-08-01T05:42:02;20.60;99.90
34492;DHT22;20737;49.908;8.126;2022-08-01T05:44:29;20.70;99.90
34492;DHT22;20737;49.908;8.126;2022-08-01T05:46:56;20.90;99.90
34492;DHT22;20737;49.908;8.126;2022-08-01T05:49:23;21.10;99.90
34492;DHT22;20737;49.908;8.126;2022-08-01T05:51:50;21.20;99.90
34492;DHT22;20737;49.908;8.126;2022-08-01T05:54:18;21.40;99.90
34492;DHT22;20737;49.908;8.126;2022-08-01T05:56:46;21.50;99.90
34492;DHT22;20737;49.908;8.126;2022-08-01T05:59:12;21.70;99.90
34492;DHT22;20737;49.908;8.126;2022-08-01T06:01:39;21.80;99.90
34492;DHT22;20737;49.908;8.126;2022-08-01T06:04:06;21.90;99.90
34492;DHT22;20737;49.908;8.126;2022-08-01T06:06:33;22.00;99.90
34492;DHT22;20737;49.908;8.126;2022-08-01T06:09:00;22.20;99.90
34492;DHT22;20737;49.908;8.126;2022-08-01T06:11:27;22.30;99.90
34492;DHT22;20737;49.908;8.126;2022-08-01T06:13:55;22.20;99.90
34492;DHT22;20737;49.908;8.126;2022-08-01T06:16:22;22.10;99.90
34492;DHT22;20737;49.908;8.126;2022-08-01T06:18:48;22.10;99.90
34492;DHT22;20737;49.908;8.126;2022-08-01T06:21:15;22.10;99.90
34492;DHT22;20737;49.908;8.126;2022-08-01T06:23:42;22.20;99.90
34492;DHT22;20737;49.908;8.126;2022-08-01T06:26:09;22.40;99.90
34492;DHT22;20737;49.908;8.126;2022-08-01T06:28:36;22.60;99.90
34492;DHT22;20737;49.908;8.126;2022-08-01T06:31:05;23.00;99.90
34492;DHT22;20737;49.908;8.126;2022-08-01T06:33:32;23.40;99.90
34492;DHT22;20737;49.908;8.126;2022-08-01T06:35:58;23.80;99.90
34492;DHT22;20737;49.908;8.126;2022-08-01T06:38:26;23.90;99.90
34492;DHT22;20737;49.908;8.126;2022-08-01T06:40:53;24.20;99.90
34492;DHT22;20737;49.908;8.126;2022-08-01T06:43:19;24.30;99.90
34492;DHT22;20737;49.908;8.126;2022-08-01T06:45:46;24.40;99.90
34492;DHT22;20737;49.908;8.126;2022-08-01T06:48:15;24.30;99.90
34492;DHT22;20737;49.908;8.126;2022-08-01T06:50:41;24.10;99.90
34492;DHT22;20737;49.908;8.126;2022-08-01T06:53:08;23.90;99.90
34492;DHT22;20737;49.908;8.126;2022-08-01T06:55:35;24.10;99.90
34492;DHT22;20737;49.908;8.126;2022-08-01T06:58:02;24.40;99.90
34492;DHT22;20737;49.908;8.126;2022-08-01T07:00:29;24.40;99.90
34492;DHT22;20737;49.908;8.126;2022-08-01T07:02:58;24.50;99.90
34492;DHT22;20737;49.908;8.126;2022-08-01T07:05:27;24.90;99.90
34492;DHT22;20737;49.908;8.126;2022-08-01T07:07:56;25.10;99.90
34492;DHT22;20737;49.908;8.126;2022-08-01T07:10:23;25.50;99.90
34492;DHT22;20737;49.908;8.126;2022-08-01T07:12:49;25.40;99.90
34492;DHT22;20737;49.908;8.126;2022-08-01T07:15:16;26.10;99.90
34492;DHT22;20737;49.908;8.126;2022-08-01T07:17:46;26.40;99.90
34492;DHT22;20737;49.908;8.126;2022-08-01T07:20:12;26.30;99.90
34492;DHT22;20737;49.908;8.126;2022-08-01T07:22:41;26.00;99.90
34492;DHT22;20737;49.908;8.126;2022-08-01T07:25:08;26.10;99.90
34492;DHT22;20737;49.908;8.126;2022-08-01T07:27:36;25.90;99.90
34492;DHT22;20737;49.908;8.126;2022-08-01T07:30:04;26.30;99.90
34492;DHT22;20737;49.908;8.126;2022-08-01T07:32:31;26.80;99.90
34492;DHT22;20737;49.908;8.126;2022-08-01T07:34:59;27.40;99.90
34492;DHT22;20737;49.908;8.126;2022-08-01T07:37:26;28.20;99.90
34492;DHT22;20737;49.908;8.126;2022-08-01T07:39:54;28.90;99.90
34492;DHT22;20737;49.908;8.126;2022-08-01T07:42:21;29.40;98.70
34492;DHT22;20737;49.908;8.126;2022-08-01T07:44:47;29.20;97.60
34492;DHT22;20737;49.908;8.126;2022-08-01T07:47:14;28.40;98.10
34492;DHT22;20737;49.908;8.126;2022-08-01T07:49:41;27.70;99.90
34492;DHT22;20737;49.908;8.126;2022-08-01T07:52:08;27.30;99.90
34492;DHT22;20737;49.908;8.126;2022-08-01T07:54:35;28.10;99.90
34492;DHT22;20737;49.908;8.126;2022-08-01T07:57:04;28.80;98.50
34492;DHT22;20737;49.908;8.126;2022-08-01T07:59:30;29.30;97.40
34492;DHT22;20737;49.908;8.126;2022-08-01T08:01:57;29.40;96.30
34492;DHT22;20737;49.908;8.126;2022-08-01T08:04:24;28.80;96.60
34492;DHT22;20737;49.908;8.126;2022-08-01T08:06:51;27.90;98.60
34492;DHT22;20737;49.908;8.126;2022-08-01T08:09:19;27.30;99.90
34492;DHT22;20737;49.908;8.126;2022-08-01T08:11:46;26.60;99.90
34492;DHT22;20737;49.908;8.126;2022-08-01T08:14:15;26.40;99.90
34492;DHT22;20737;49.908;8.126;2022-08-01T08:16:42;26.20;99.90
34492;DHT22;20737;49.908;8.126;2022-08-01T08:19:09;26.30;99.90
34492;DHT22;20737;49.908;8.126;2022-08-01T08:21:36;26.30;99.90
34492;DHT22;20737;49.908;8.126;2022-08-01T08:24:03;26.10;99.90
34492;DHT22;20737;49.908;8.126;2022-08-01T08:26:50;25.80;99.90
34492;DHT22;20737;49.908;8.126;2022-08-01T08:29:20;25.60;99.90
34492;DHT22;20737;49.908;8.126;2022-08-01T08:31:47;25.60;99.90
34492;DHT22;20737;49.908;8.126;2022-08-01T08:34:14;25.70;99.90
34492;DHT22;20737;49.908;8.126;2022-08-01T08:36:41;26.30;99.90
34492;DHT22;20737;49.908;8.126;2022-08-01T08:39:08;28.00;99.90
34492;DHT22;20737;49.908;8.126;2022-08-01T08:41:35;28.60;99.30
34492;DHT22;20737;49.908;8.126;2022-08-01T08:44:02;28.40;99.40
34492;DHT22;20737;49.908;8.126;2022-08-01T08:46:32;27.80;99.90
34492;DHT22;20737;49.908;8.126;2022-08-01T08:49:01;27.30;99.90
34492;DHT22;20737;49.908;8.126;2022-08-01T08:51:30;27.10;99.90
34492;DHT22;20737;49.908;8.126;2022-08-01T08:53:58;27.00;99.90
34492;DHT22;20737;49.908;8.126;2022-08-01T08:56:26;27.30;99.90
34492;DHT22;20737;49.908;8.126;2022-08-01T08:58:55;27.50;99.90
34492;DHT22;20737;49.908;8.126;2022-08-01T09:01:22;27.90;99.90
34492;DHT22;20737;49.908;8.126;2022-08-01T09:03:50;27.90;99.60
34492;DHT22;20737;49.908;8.126;2022-08-01T09:06:17;27.80;99.90
34492;DHT22;20737;49.908;8.126;2022-08-01T09:08:44;29.00;99.20
34492;DHT22;20737;49.908;8.126;2022-08-01T09:11:11;30.80;95.30
34492;DHT22;20737;49.908;8.126;2022-08-01T09:13:38;32.60;89.50
34492;DHT22;20737;49.908;8.126;2022-08-01T09:16:05;33.60;81.80
34492;DHT22;20737;49.908;8.126;2022-08-01T09:18:33;33.40;75.90
34492;DHT22;20737;49.908;8.126;2022-08-01T09:21:13;32.90;76.50
34492;DHT22;20737;49.908;8.126;2022-08-01T09:23:43;33.50;76.50
34492;DHT22;20737;49.908;8.126;2022-08-01T09:26:11;35.00;71.20
34492;DHT22;20737;49.908;8.126;2022-08-01T09:28:39;36.10;64.00
34492;DHT22;20737;49.908;8.126;2022-08-01T09:31:07;35.80;59.70
34492;DHT22;20737;49.908;8.126;2022-08-01T09:33:48;35.10;60.00
34492;DHT22;20737;49.908;8.126;2022-08-01T09:36:17;34.20;63.90
34492;DHT22;20737;49.908;8.126;2022-08-01T09:38:44;32.70;67.50
34492;DHT22;20737;49.908;8.126;2022-08-01T09:41:11;32.20;71.80
34492;DHT22;20737;49.908;8.126;2022-08-01T09:43:38;32.60;68.10
34492;DHT22;20737;49.908;8.126;2022-08-01T09:46:09;33.50;66.70
34492;DHT22;20737;49.908;8.126;2022-08-01T09:48:37;33.20;64.50
34492;DHT22;20737;49.908;8.126;2022-08-01T09:51:05;32.60;66.10
34492;DHT22;20737;49.908;8.126;2022-08-01T09:53:44;31.80;68.70
34492;DHT22;20737;49.908;8.126;2022-08-01T09:56:12;30.70;73.10
34492;DHT22;20737;49.908;8.126;2022-08-01T09:59:00;30.00;75.30
34492;DHT22;20737;49.908;8.126;2022-08-01T10:01:28;29.80;78.00
34492;DHT22;20737;49.908;8.126;2022-08-01T10:04:05;30.70;76.60
34492;DHT22;20737;49.908;8.126;2022-08-01T10:06:32;32.00;73.10
34492;DHT22;20737;49.908;8.126;2022-08-01T10:09:00;33.90;69.70
34492;DHT22;20737;49.908;8.126;2022-08-01T10:11:28;35.20;63.40
34492;DHT22;20737;49.908;8.126;2022-08-01T10:13:58;35.20;59.20
34492;DHT22;20737;49.908;8.126;2022-08-01T10:16:26;35.00;59.90
34492;DHT22;20737;49.908;8.126;2022-08-01T10:18:54;34.40;61.50
34492;DHT22;20737;49.908;8.126;2022-08-01T10:21:23;34.50;61.00
34492;DHT22;20737;49.908;8.126;2022-08-01T10:23:54;34.30;61.00
34492;DHT22;20737;49.908;8.126;2022-08-01T10:26:25;34.40;59.80
34492;DHT22;20737;49.908;8.126;2022-08-01T10:28:54;33.70;62.50
34492;DHT22;20737;49.908;8.126;2022-08-01T10:31:21;33.70;63.60
34492;DHT22;20737;49.908;8.126;2022-08-01T10:33:48;32.50;62.70
34492;DHT22;20737;49.908;8.126;2022-08-01T10:36:18;32.30;67.10
34492;DHT22;20737;49.908;8.126;2022-08-01T10:38:46;34.10;61.80
34492;DHT22;20737;49.908;8.126;2022-08-01T10:41:14;36.00;57.50
34492;DHT22;20737;49.908;8.126;2022-08-01T10:43:43;36.20;55.10
34492;DHT22;20737;49.908;8.126;2022-08-01T10:46:10;34.40;57.50
34492;DHT22;20737;49.908;8.126;2022-08-01T10:48:45;33.20;60.30
34492;DHT22;20737;49.908;8.126;2022-08-01T10:51:14;32.60;64.10
34492;DHT22;20737;49.908;8.126;2022-08-01T10:53:46;34.50;59.40
34492;DHT22;20737;49.908;8.126;2022-08-01T10:56:13;35.70;56.30
34492;DHT22;20737;49.908;8.126;2022-08-01T10:58:45;36.80;53.30
34492;DHT22;20737;49.908;8.126;2022-08-01T11:01:23;37.40;51.10
34492;DHT22;20737;49.908;8.126;2022-08-01T11:04:04;37.70;51.60
34492;DHT22;20737;49.908;8.126;2022-08-01T11:06:48;37.00;50.30
34492;DHT22;20737;49.908;8.126;2022-08-01T11:09:23;37.70;50.00
34492;DHT22;20737;49.908;8.126;2022-08-01T11:12:01;38.00;50.40
34492;DHT22;20737;49.908;8.126;2022-08-01T11:14:32;38.10;49.60
34492;DHT22;20737;49.908;8.126;2022-08-01T11:17:30;38.70;47.70
34492;DHT22;20737;49.908;8.126;2022-08-01T11:20:09;38.90;47.20
34492;DHT22;20737;49.908;8.126;2022-08-01T11:28:35;38.00;48.10
34492;DHT22;20737;49.908;8.126;2022-08-01T11:31:28;37.40;49.30
34492;DHT22;20737;49.908;8.126;2022-08-01T11:33:55;37.80;48.50
34492;DHT22;20737;49.908;8.126;2022-08-01T11:36:22;37.20;48.70
34492;DHT22;20737;49.908;8.126;2022-08-01T11:39:10;35.90;49.70
34492;DHT22;20737;49.908;8.126;2022-08-01T11:41:37;34.30;50.70
34492;DHT22;20737;49.908;8.126;2022-08-01T11:44:06;34.30;51.70
34492;DHT22;20737;49.908;8.126;2022-08-01T11:46:56;33.60;53.60
34492;DHT22;20737;49.908;8.126;2022-08-01T11:49:30;32.90;55.70
34492;DHT22;20737;49.908;8.126;2022-08-01T11:52:08;32.90;57.20
34492;DHT22;20737;49.908;8.126;2022-08-01T11:54:37;33.20;56.60
34492;DHT22;20737;49.908;8.126;2022-08-01T11:57:06;33.60;55.00
34492;DHT22;20737;49.908;8.126;2022-08-01T11:59:44;33.40;55.50
34492;DHT22;20737;49.908;8.126;2022-08-01T12:02:22;32.70;55.30
34492;DHT22;20737;49.908;8.126;2022-08-01T12:04:52;32.00;57.60
34492;DHT22;20737;49.908;8.126;2022-08-01T12:07:20;31.90;57.40
34492;DHT22;20737;49.908;8.126;2022-08-01T12:09:47;31.50;58.40
34492;DHT22;20737;49.908;8.126;2022-08-01T12:12:17;31.50;58.70
34492;DHT22;20737;49.908;8.126;2022-08-01T12:14:45;31.60;58.30
34492;DHT22;20737;49.908;8.126;2022-08-01T12:17:22;31.60;57.70
34492;DHT22;20737;49.908;8.126;2022-08-01T12:19:53;31.70;57.90
34492;DHT22;20737;49.908;8.126;2022-08-01T12:22:23;32.00;57.10
34492;DHT22;20737;49.908;8.126;2022-08-01T12:24:50;31.70;57.30
34492;DHT22;20737;49.908;8.126;2022-08-01T12:27:24;31.50;58.10
34492;DHT22;20737;49.908;8.126;2022-08-01T12:29:51;31.90;57.10
34492;DHT22;20737;49.908;8.126;2022-08-01T12:32:25;32.20;56.80
34492;DHT22;20737;49.908;8.126;2022-08-01T12:34:53;32.70;57.20
34492;DHT22;20737;49.908;8.126;2022-08-01T12:37:21;33.00;54.20
34492;DHT22;20737;49.908;8.126;2022-08-01T12:39:48;32.80;55.50
34492;DHT22;20737;49.908;8.126;2022-08-01T12:42:15;32.60;55.50
34492;DHT22;20737;49.908;8.126;2022-08-01T12:44:44;32.60;56.50
34492;DHT22;20737;49.908;8.126;2022-08-01T12:47:12;32.80;55.50
34492;DHT22;20737;49.908;8.126;2022-08-01T12:49:42;32.80;54.30
34492;DHT22;20737;49.908;8.126;2022-08-01T12:52:10;32.90;54.00
34492;DHT22;20737;49.908;8.126;2022-08-01T12:55:03;32.60;56.50
34492;DHT22;20737;49.908;8.126;2022-08-01T12:57:31;32.70;54.80
34492;DHT22;20737;49.908;8.126;2022-08-01T13:00:06;32.40;55.00
34492;DHT22;20737;49.908;8.126;2022-08-01T13:02:33;32.10;55.70
34492;DHT22;20737;49.908;8.126;2022-08-01T13:05:02;31.50;56.60
34492;DHT22;20737;49.908;8.126;2022-08-01T13:07:37;31.00;57.50
34492;DHT22;20737;49.908;8.126;2022-08-01T13:10:05;30.50;58.80
34492;DHT22;20737;49.908;8.126;2022-08-01T13:12:32;30.30;59.90
34492;DHT22;20737;49.908;8.126;2022-08-01T13:14:59;30.20;61.10
34492;DHT22;20737;49.908;8.126;2022-08-01T13:17:30;30.00;62.70
34492;DHT22;20737;49.908;8.126;2022-08-01T13:19:57;29.80;60.70
34492;DHT22;20737;49.908;8.126;2022-08-01T13:22:32;29.50;63.00
34492;DHT22;20737;49.908;8.126;2022-08-01T13:25:10;29.50;65.20
34492;DHT22;20737;49.908;8.126;2022-08-01T13:27:38;29.40;63.70
34492;DHT22;20737;49.908;8.126;2022-08-01T13:30:12;29.20;63.60
34492;DHT22;20737;49.908;8.126;2022-08-01T13:32:39;29.10;64.00
34492;DHT22;20737;49.908;8.126;2022-08-01T13:35:09;29.10;66.10
34492;DHT22;20737;49.908;8.126;2022-08-01T13:37:40;29.30;67.30
34492;DHT22;20737;49.908;8.126;2022-08-01T13:40:09;29.40;65.60
34492;DHT22;20737;49.908;8.126;2022-08-01T13:42:37;29.30;65.00
34492;DHT22;20737;49.908;8.126;2022-08-01T13:45:05;29.40;64.50
34492;DHT22;20737;49.908;8.126;2022-08-01T13:47:34;29.50;66.10
34492;DHT22;20737;49.908;8.126;2022-08-01T13:50:01;29.60;66.60
34492;DHT22;20737;49.908;8.126;2022-08-01T13:52:28;29.50;63.60
34492;DHT22;20737;49.908;8.126;2022-08-01T13:54:57;29.50;63.80
34492;DHT22;20737;49.908;8.126;2022-08-01T13:57:25;29.40;64.50
34492;DHT22;20737;49.908;8.126;2022-08-01T13:59:51;29.50;66.80
34492;DHT22;20737;49.908;8.126;2022-08-01T14:02:18;29.50;66.10
34492;DHT22;20737;49.908;8.126;2022-08-01T14:04:45;29.20;65.00
34492;DHT22;20737;49.908;8.126;2022-08-01T14:07:12;29.00;64.30
34492;DHT22;20737;49.908;8.126;2022-08-01T14:09:39;28.70;69.10
34492;DHT22;20737;49.908;8.126;2022-08-01T14:12:08;28.40;66.50
34492;DHT22;20737;49.908;8.126;2022-08-01T14:14:35;28.20;67.40
34492;DHT22;20737;49.908;8.126;2022-08-01T14:17:02;27.90;72.70
34492;DHT22;20737;49.908;8.126;2022-08-01T14:19:29;27.50;81.30
34492;DHT22;20737;49.908;8.126;2022-08-01T14:21:56;27.20;81.30
34492;DHT22;20737;49.908;8.126;2022-08-01T14:24:23;27.00;95.80
34492;DHT22;20737;49.908;8.126;2022-08-01T14:26:51;26.80;99.90
34492;DHT22;20737;49.908;8.126;2022-08-01T14:29:19;26.60;99.90
34492;DHT22;20737;49.908;8.126;2022-08-01T14:31:46;26.50;99.90
34492;DHT22;20737;49.908;8.126;2022-08-01T14:34:13;26.40;99.90
34492;DHT22;20737;49.908;8.126;2022-08-01T14:36:41;26.30;99.90
34492;DHT22;20737;49.908;8.126;2022-08-01T14:39:08;26.20;99.90
34492;DHT22;20737;49.908;8.126;2022-08-01T14:41:34;26.40;99.90
34492;DHT22;20737;49.908;8.126;2022-08-01T14:44:02;26.50;99.90
34492;DHT22;20737;49.908;8.126;2022-08-01T14:46:30;26.70;99.90
34492;DHT22;20737;49.908;8.126;2022-08-01T14:48:57;26.70;99.90
34492;DHT22;20737;49.908;8.126;2022-08-01T14:51:24;26.90;99.90
34492;DHT22;20737;49.908;8.126;2022-08-01T14:53:51;27.00;99.90
34492;DHT22;20737;49.908;8.126;2022-08-01T14:56:18;27.10;99.90
34492;DHT22;20737;49.908;8.126;2022-08-01T14:58:45;27.20;99.90
34492;DHT22;20737;49.908;8.126;2022-08-01T15:01:12;27.30;99.90
34492;DHT22;20737;49.908;8.126;2022-08-01T15:03:40;27.30;99.90
34492;DHT22;20737;49.908;8.126;2022-08-01T15:06:07;27.30;99.90
34492;DHT22;20737;49.908;8.126;2022-08-01T15:08:36;27.40;99.90
34492;DHT22;20737;49.908;8.126;2022-08-01T15:11:03;27.50;99.90
34492;DHT22;20737;49.908;8.126;2022-08-01T15:13:29;27.50;99.90
34492;DHT22;20737;49.908;8.126;2022-08-01T15:15:57;27.40;99.90
34492;DHT22;20737;49.908;8.126;2022-08-01T15:18:24;27.30;99.90
34492;DHT22;20737;49.908;8.126;2022-08-01T15:20:52;27.20;99.90
34492;DHT22;20737;49.908;8.126;2022-08-01T15:23:19;27.20;99.90
34492;DHT22;20737;49.908;8.126;2022-08-01T15:25:46;27.10;99.90
34492;DHT22;20737;49.908;8.126;2022-08-01T15:28:13;27.00;99.90
34492;DHT22;20737;49.908;8.126;2022-08-01T15:30:40;27.00;99.90
34492;DHT22;20737;49.908;8.126;2022-08-01T15:33:07;26.90;99.90
34492;DHT22;20737;49.908;8.126;2022-08-01T15:35:34;26.90;99.90
34492;DHT22;20737;49.908;8.126;2022-08-01T15:38:02;27.00;99.90
34492;DHT22;20737;49.908;8.126;2022-08-01T15:40:29;26.90;99.90
34492;DHT22;20737;49.908;8.126;2022-08-01T15:43:00;27.00;99.90
34492;DHT22;20737;49.908;8.126;2022-08-01T15:45:26;27.00;99.90
34492;DHT22;20737;49.908;8.126;2022-08-01T15:47:55;27.00;99.90
34492;DHT22;20737;49.908;8.126;2022-08-01T15:50:22;27.20;99.90